createdAt,value
2019-04-21T00:00:39.704Z,15.65
2019-04-21T00:01:44.422Z,15.65
2019-04-21T00:02:42.378Z,15.54
2019-04-21T00:03:47.686Z,15.51
2019-04-21T00:04:50.872Z,15.51
2019-04-21T00:05:58.928Z,15.44
2019-04-21T00:06:56.654Z,15.35
2019-04-21T00:08:05.019Z,15.25
2019-04-21T00:09:02.393Z,15.19
2019-04-21T00:09:58.410Z,15.22
2019-04-21T00:11:02.942Z,15.27
2019-04-21T00:11:56.947Z,15.28
2019-04-21T00:12:52.277Z,15.28
2019-04-21T00:13:53.835Z,15.22
2019-04-21T00:14:51.342Z,15.27
2019-04-21T00:15:46.737Z,15.19
2019-04-21T00:16:45.456Z,15.35
2019-04-21T00:17:38.975Z,15.35
2019-04-21T00:18:47.922Z,15.37
2019-04-21T00:19:39.146Z,15.27
2019-04-21T00:20:43.914Z,15.40
2019-04-21T00:21:45.016Z,15.29
2019-04-21T00:22:50.539Z,15.22
2019-04-21T00:23:55.280Z,15.29
2019-04-21T00:24:48.783Z,15.31
2019-04-21T00:25:47.852Z,15.14
2019-04-21T00:26:57.324Z,15.10
2019-04-21T00:27:50.119Z,15.03
2019-04-21T00:29:06.318Z,15.02
2019-04-21T00:29:58.280Z,14.94
2019-04-21T00:30:57.028Z,15.02
2019-04-21T00:31:51.393Z,14.99
2019-04-21T00:32:49.994Z,14.97
2019-04-21T00:33:40.964Z,15.02
2019-04-21T00:34:36.443Z,14.99
2019-04-21T00:35:45.097Z,14.94
2019-04-21T00:36:47.234Z,14.96
2019-04-21T00:37:53.475Z,15.00
2019-04-21T00:39:09.954Z,14.86
2019-04-21T00:40:00.980Z,15.07
2019-04-21T00:41:01.753Z,15.03
2019-04-21T00:41:55.846Z,15.03
2019-04-21T00:42:55.672Z,15.07
2019-04-21T00:43:49.085Z,15.00
2019-04-21T00:44:52.000Z,15.07
2019-04-21T00:45:48.739Z,15.06
2019-04-21T00:46:52.129Z,15.02
2019-04-21T00:47:58.781Z,15.04
2019-04-21T00:48:59.220Z,14.91
2019-04-21T00:49:57.807Z,14.92
2019-04-21T00:51:10.938Z,14.88
2019-04-21T00:52:07.146Z,14.81
2019-04-21T00:54:04.415Z,14.73
2019-04-21T00:55:10.977Z,14.78
2019-04-21T00:55:59.172Z,14.63
2019-04-21T00:58:02.034Z,14.59
2019-04-21T00:58:59.925Z,14.54
2019-04-21T01:00:00.930Z,14.58
2019-04-21T01:00:58.903Z,14.55
2019-04-21T01:01:55.472Z,14.45
2019-04-21T01:02:57.553Z,14.48
2019-04-21T01:03:58.472Z,14.51
2019-04-21T01:05:01.653Z,14.55
2019-04-21T01:05:57.314Z,14.54
2019-04-21T01:06:54.470Z,14.53
2019-04-21T01:07:50.305Z,14.37
2019-04-21T01:08:55.470Z,14.33
2019-04-21T01:09:48.518Z,14.33
2019-04-21T01:10:48.966Z,14.33
2019-04-21T01:11:59.339Z,14.33
2019-04-21T01:12:56.121Z,14.50
2019-04-21T01:14:05.832Z,14.51
2019-04-21T01:15:59.109Z,14.65
2019-04-21T01:17:00.369Z,14.66
2019-04-21T01:19:02.205Z,14.53
2019-04-21T01:19:57.475Z,14.55
2019-04-21T01:21:45.881Z,14.54
2019-04-21T01:22:45.792Z,14.58
2019-04-21T01:24:43.426Z,14.50
2019-04-21T01:25:44.893Z,14.62
2019-04-21T01:28:02.242Z,14.60
2019-04-21T01:29:00.097Z,14.37
2019-04-21T01:31:11.111Z,14.14
2019-04-21T01:32:10.457Z,14.05
2019-04-21T01:34:15.098Z,14.05
2019-04-21T01:35:09.886Z,14.07
2019-04-21T01:36:08.199Z,13.97
2019-04-21T01:37:03.936Z,13.95
2019-04-21T01:38:19.110Z,13.89
2019-04-21T01:39:14.989Z,13.97
2019-04-21T01:40:16.307Z,13.96
2019-04-21T01:41:18.038Z,14.07
2019-04-21T01:42:11.358Z,13.95
2019-04-21T01:43:07.998Z,13.97
2019-04-21T01:44:22.486Z,13.92
2019-04-21T01:45:12.492Z,13.90
2019-04-21T01:46:09.243Z,13.93
2019-04-21T01:47:06.117Z,13.86
2019-04-21T01:48:06.560Z,13.74
2019-04-21T01:49:04.622Z,13.87
2019-04-21T01:49:59.306Z,13.81
2019-04-21T01:51:05.336Z,13.67
2019-04-21T01:52:20.816Z,13.57
2019-04-21T01:53:22.568Z,13.67
2019-04-21T01:54:18.437Z,13.74
2019-04-21T01:55:12.694Z,13.70
2019-04-21T01:56:11.877Z,13.75
2019-04-21T01:57:10.426Z,13.74
2019-04-21T01:58:02.333Z,13.74
2019-04-21T01:59:00.802Z,13.68
2019-04-21T02:00:00.971Z,13.81
2019-04-21T02:01:05.662Z,13.75
2019-04-21T02:02:10.749Z,13.78
2019-04-21T02:03:28.610Z,13.71
2019-04-21T02:04:06.882Z,13.77
2019-04-21T02:05:18.808Z,13.78
2019-04-21T02:06:18.461Z,13.89
2019-04-21T02:07:13.157Z,13.75
2019-04-21T02:08:09.856Z,13.77
2019-04-21T02:09:04.021Z,13.86
2019-04-21T02:10:11.115Z,13.68
2019-04-21T02:11:12.523Z,13.70
2019-04-21T02:12:08.774Z,13.65
2019-04-21T02:13:09.038Z,13.56
2019-04-21T02:14:11.341Z,13.46
2019-04-21T02:15:11.350Z,13.47
2019-04-21T02:16:13.736Z,13.37
2019-04-21T02:17:12.260Z,13.35
2019-04-21T02:18:09.186Z,13.44
2019-04-21T02:19:04.368Z,13.22
2019-04-21T02:20:05.415Z,13.18
2019-04-21T02:20:57.076Z,13.22
2019-04-21T02:22:00.707Z,13.23
2019-04-21T02:23:22.318Z,13.30
2019-04-21T02:24:18.818Z,13.35
2019-04-21T02:26:09.824Z,13.44
2019-04-21T02:27:08.629Z,13.44
2019-04-21T02:28:17.617Z,13.47
2019-04-21T02:29:31.399Z,13.53
2019-04-21T02:30:18.315Z,13.42
2019-04-21T02:31:20.945Z,13.39
2019-04-21T02:32:18.373Z,13.35
2019-04-21T02:33:27.044Z,13.18
2019-04-21T02:35:30.404Z,13.08
2019-04-21T02:36:30.819Z,13.00
2019-04-21T02:38:28.032Z,12.90
2019-04-21T02:41:18.290Z,12.86
2019-04-21T02:43:18.759Z,12.76
2019-04-21T02:44:24.025Z,12.78
2019-04-21T02:45:17.101Z,12.68
2019-04-21T02:46:27.424Z,12.70
2019-04-21T02:47:19.081Z,12.76
2019-04-21T02:48:22.664Z,12.67
2019-04-21T02:49:22.812Z,12.67
2019-04-21T02:50:19.012Z,12.67
2019-04-21T02:51:23.409Z,12.65
2019-04-21T02:52:27.443Z,12.53
2019-04-21T02:53:21.132Z,12.55
2019-04-21T02:54:42.096Z,12.54
2019-04-21T02:56:20.409Z,12.67
2019-04-21T02:58:17.880Z,12.55
2019-04-21T02:59:17.228Z,12.53
2019-04-21T03:00:29.059Z,12.47
2019-04-21T03:01:23.901Z,12.49
2019-04-21T03:02:17.217Z,12.53
2019-04-21T03:03:25.908Z,12.58
2019-04-21T03:05:24.331Z,12.58
2019-04-21T03:06:20.701Z,12.57
2019-04-21T03:08:21.981Z,12.53
2019-04-21T03:09:18.264Z,12.60
2019-04-21T03:10:20.571Z,12.55
2019-04-21T03:12:22.321Z,12.65
2019-04-21T03:13:21.670Z,12.62
2019-04-21T03:14:24.966Z,12.70
2019-04-21T03:15:25.565Z,12.47
2019-04-21T03:16:23.511Z,12.49
2019-04-21T03:17:14.197Z,12.50
2019-04-21T03:18:19.593Z,12.50
2019-04-21T03:19:20.382Z,12.57
2019-04-21T03:20:17.429Z,12.50
2019-04-21T03:21:15.450Z,12.53
2019-04-21T03:22:20.400Z,12.37
2019-04-21T03:23:23.398Z,12.45
2019-04-21T03:25:25.289Z,12.61
2019-04-21T03:26:24.909Z,12.53
2019-04-21T03:28:16.292Z,12.55
2019-04-21T03:30:53.094Z,12.55
2019-04-21T03:31:34.772Z,12.42
2019-04-21T03:35:53.509Z,12.67
2019-04-21T03:37:16.961Z,12.73
2019-04-21T03:38:20.868Z,12.72
2019-04-21T03:39:07.620Z,12.68
2019-04-21T03:41:12.060Z,12.65
2019-04-21T03:42:21.612Z,12.65
2019-04-21T03:43:12.642Z,12.72
2019-04-21T03:45:20.552Z,12.62
2019-04-21T03:46:08.575Z,12.73
2019-04-21T03:47:20.830Z,12.70
2019-04-21T03:48:09.825Z,12.65
2019-04-21T03:49:19.264Z,12.70
2019-04-21T03:50:11.409Z,12.62
2019-04-21T03:51:12.511Z,12.73
2019-04-21T03:53:09.546Z,12.61
2019-04-21T03:54:13.791Z,12.62
2019-04-21T03:55:35.827Z,12.64
2019-04-21T03:56:23.269Z,12.64
2019-04-21T03:57:19.971Z,12.70
2019-04-21T03:58:25.926Z,12.67
2019-04-21T03:59:14.195Z,12.60
2019-04-21T04:00:21.632Z,12.72
2019-04-21T04:01:11.362Z,12.62
2019-04-21T04:02:16.345Z,12.72
2019-04-21T04:03:35.032Z,12.64
2019-04-21T04:05:11.048Z,12.65
2019-04-21T04:07:11.404Z,12.73
2019-04-21T04:08:21.794Z,12.70
2019-04-21T04:09:31.380Z,12.65
2019-04-21T04:10:11.854Z,12.68
2019-04-21T04:12:06.930Z,12.72
2019-04-21T04:13:15.674Z,12.55
2019-04-21T04:14:12.865Z,12.64
2019-04-21T04:15:12.384Z,12.60
2019-04-21T04:16:15.400Z,12.57
2019-04-21T04:17:11.838Z,12.55
2019-04-21T04:18:23.404Z,12.49
2019-04-21T04:19:09.290Z,12.70
2019-04-21T04:20:12.270Z,12.67
2019-04-21T04:21:15.073Z,12.58
2019-04-21T04:23:24.796Z,12.54
2019-04-21T04:25:15.466Z,12.67
2019-04-21T04:26:13.063Z,12.61
2019-04-21T04:29:12.294Z,12.49
2019-04-21T04:30:19.756Z,12.53
2019-04-21T04:31:22.287Z,12.42
2019-04-21T04:32:07.995Z,12.47
2019-04-21T04:33:07.960Z,12.45
2019-04-21T04:36:15.595Z,12.50
2019-04-21T04:37:12.311Z,12.53
2019-04-21T04:38:19.619Z,12.57
2019-04-21T04:39:17.599Z,12.53
2019-04-21T04:40:09.233Z,12.49
2019-04-21T04:41:14.565Z,12.49
2019-04-21T04:44:17.772Z,12.40
2019-04-21T04:47:12.337Z,12.42
2019-04-21T04:48:09.171Z,12.42
2019-04-21T04:49:11.449Z,12.31
2019-04-21T04:50:19.740Z,12.25
2019-04-21T04:51:01.379Z,12.25
2019-04-21T04:52:24.668Z,12.27
2019-04-21T04:53:12.005Z,12.28
2019-04-21T04:54:06.261Z,12.39
2019-04-21T04:56:07.691Z,12.31
2019-04-21T04:59:22.646Z,12.29
2019-04-21T05:00:14.298Z,12.25
2019-04-21T05:01:14.674Z,12.32
2019-04-21T05:02:26.478Z,12.36
2019-04-21T05:03:00.979Z,12.35
2019-04-21T05:04:10.321Z,12.37
2019-04-21T05:06:19.366Z,12.39
2019-04-21T05:07:07.122Z,12.45
2019-04-21T05:08:08.444Z,12.49
2019-04-21T05:09:11.015Z,12.37
2019-04-21T05:09:59.532Z,12.40
2019-04-21T05:11:07.930Z,12.43
2019-04-21T05:12:07.757Z,12.40
2019-04-21T05:12:58.770Z,12.55
2019-04-21T05:14:17.142Z,12.53
2019-04-21T05:15:10.133Z,12.60
2019-04-21T05:16:02.162Z,12.64
2019-04-21T05:17:02.299Z,12.64
2019-04-21T05:18:15.328Z,12.68
2019-04-21T05:20:08.626Z,12.72
2019-04-21T05:21:20.251Z,12.82
2019-04-21T05:22:05.292Z,12.82
2019-04-21T05:22:54.265Z,12.83
2019-04-21T05:23:51.029Z,12.78
2019-04-21T05:24:52.385Z,12.80
2019-04-21T05:25:48.662Z,12.83
2019-04-21T05:26:47.997Z,12.80
2019-04-21T05:27:47.921Z,12.93
2019-04-21T05:28:44.605Z,12.95
2019-04-21T05:29:58.725Z,12.97
2019-04-21T05:30:55.447Z,12.97
2019-04-21T05:31:58.388Z,12.93
2019-04-21T05:32:52.578Z,12.91
2019-04-21T05:33:57.678Z,13.01
2019-04-21T05:34:56.922Z,12.95
2019-04-21T05:36:50.554Z,13.03
2019-04-21T05:37:47.307Z,13.09
2019-04-21T05:38:47.742Z,13.12
2019-04-21T05:39:51.259Z,13.11
2019-04-21T05:40:43.652Z,13.13
2019-04-21T05:41:42.988Z,13.12
2019-04-21T05:42:50.966Z,13.13
2019-04-21T05:43:51.738Z,13.16
2019-04-21T05:44:58.126Z,13.27
2019-04-21T05:45:58.531Z,13.19
2019-04-21T05:46:56.453Z,13.11
2019-04-21T05:47:58.472Z,13.09
2019-04-21T05:48:51.913Z,13.11
2019-04-21T05:49:49.852Z,13.23
2019-04-21T05:50:50.905Z,13.13
2019-04-21T05:51:44.307Z,13.31
2019-04-21T05:52:45.941Z,13.22
2019-04-21T05:53:55.929Z,13.28
2019-04-21T05:54:59.573Z,13.31
2019-04-21T05:56:48.850Z,13.38
2019-04-21T05:57:48.162Z,13.39
2019-04-21T05:58:48.468Z,13.31
2019-04-21T05:59:51.612Z,13.39
2019-04-21T06:01:07.872Z,13.39
2019-04-21T06:02:03.092Z,13.41
2019-04-21T06:02:57.695Z,13.50
2019-04-21T06:04:00.223Z,13.50
2019-04-21T06:06:00.321Z,13.56
2019-04-21T06:06:56.947Z,13.62
2019-04-21T06:07:53.755Z,13.63
2019-04-21T06:08:49.980Z,13.65
2019-04-21T06:09:57.319Z,13.63
2019-04-21T06:10:53.921Z,13.67
2019-04-21T06:11:51.423Z,13.71
2019-04-21T06:12:59.625Z,13.65
2019-04-21T06:13:55.087Z,13.63
2019-04-21T06:14:58.430Z,13.54
2019-04-21T06:16:57.156Z,13.57
2019-04-21T06:17:49.163Z,13.67
2019-04-21T06:18:52.984Z,13.67
2019-04-21T06:19:56.919Z,13.67
2019-04-21T06:20:55.073Z,13.75
2019-04-21T06:21:51.571Z,13.72
2019-04-21T06:22:50.791Z,13.75
2019-04-21T06:23:52.135Z,13.74
2019-04-21T06:25:18.634Z,13.87
2019-04-21T06:26:19.866Z,13.89
2019-04-21T06:27:05.328Z,13.79
2019-04-21T06:27:51.132Z,13.79
2019-04-21T06:28:52.550Z,13.85
2019-04-21T06:29:50.305Z,13.92
2019-04-21T06:31:01.546Z,13.92
2019-04-21T06:32:18.749Z,13.95
2019-04-21T06:32:50.852Z,13.92
2019-04-21T06:33:50.829Z,13.87
2019-04-21T06:35:07.306Z,13.92
2019-04-21T06:36:19.799Z,14.00
2019-04-21T06:37:52.267Z,13.97
2019-04-21T06:38:59.626Z,13.99
2019-04-21T06:40:02.502Z,14.04
2019-04-21T06:40:50.121Z,14.08
2019-04-21T06:41:49.167Z,14.05
2019-04-21T06:42:51.452Z,14.07
2019-04-21T06:44:07.565Z,14.05
2019-04-21T06:44:57.495Z,14.17
2019-04-21T06:45:59.016Z,14.11
2019-04-21T06:46:45.994Z,14.14
2019-04-21T06:47:51.248Z,14.25
2019-04-21T06:48:55.426Z,14.28
2019-04-21T06:49:50.278Z,14.25
2019-04-21T06:50:57.140Z,14.35
2019-04-21T06:51:48.180Z,14.33
2019-04-21T06:52:55.013Z,14.43
2019-04-21T06:53:54.232Z,14.51
2019-04-21T06:54:51.098Z,14.50
2019-04-21T06:55:46.710Z,14.54
2019-04-21T06:56:51.665Z,14.58
2019-04-21T06:57:47.372Z,14.53
2019-04-21T06:58:44.611Z,14.55
2019-04-21T06:59:45.243Z,14.66
2019-04-21T07:00:42.454Z,14.69
2019-04-21T07:03:06.202Z,14.77
2019-04-21T07:04:01.752Z,14.68
2019-04-21T07:04:50.532Z,14.70
2019-04-21T07:05:52.773Z,14.79
2019-04-21T07:06:52.106Z,14.81
2019-04-21T07:07:54.930Z,14.79
2019-04-21T07:08:56.715Z,14.77
2019-04-21T07:09:52.986Z,14.82
2019-04-21T07:10:46.459Z,14.81
2019-04-21T07:11:44.353Z,14.85
2019-04-21T07:12:45.015Z,14.84
2019-04-21T07:13:52.931Z,14.86
2019-04-21T07:14:48.249Z,14.94
2019-04-21T07:15:59.813Z,14.91
2019-04-21T07:16:53.147Z,14.84
2019-04-21T07:17:45.404Z,14.88
2019-04-21T07:18:51.261Z,15.04
2019-04-21T07:19:48.442Z,14.97
2019-04-21T07:20:49.167Z,15.02
2019-04-21T07:21:45.565Z,15.06
2019-04-21T07:22:49.214Z,15.10
2019-04-21T07:23:45.970Z,15.09
2019-04-21T07:24:46.161Z,15.09
2019-04-21T07:25:49.322Z,15.15
2019-04-21T07:26:42.707Z,15.06
2019-04-21T07:27:50.714Z,15.19
2019-04-21T07:28:47.844Z,15.15
2019-04-21T07:29:47.413Z,15.11
2019-04-21T07:30:43.950Z,15.22
2019-04-21T07:31:57.252Z,15.10
2019-04-21T07:32:51.340Z,15.07
2019-04-21T07:33:53.405Z,15.25
2019-04-21T07:34:49.867Z,15.25
2019-04-21T07:35:43.282Z,15.22
2019-04-21T07:36:53.379Z,15.17
2019-04-21T07:37:41.567Z,15.27
2019-04-21T07:38:41.291Z,15.24
2019-04-21T07:39:38.914Z,15.18
2019-04-21T07:40:38.960Z,15.25
2019-04-21T07:41:39.763Z,15.17
2019-04-21T07:42:39.973Z,15.25
2019-04-21T07:43:38.103Z,15.31
2019-04-21T07:44:34.976Z,15.33
2019-04-21T07:45:36.699Z,15.36
2019-04-21T07:46:37.236Z,15.36
2019-04-21T07:47:44.504Z,15.37
2019-04-21T07:48:43.270Z,15.40
2019-04-21T07:49:48.819Z,15.46
2019-04-21T07:50:39.142Z,15.43
2019-04-21T07:51:47.954Z,15.44
2019-04-21T07:52:49.091Z,15.49
2019-04-21T07:53:49.445Z,15.44
2019-04-21T07:54:44.378Z,15.51
2019-04-21T07:56:28.388Z,15.62
2019-04-21T07:57:39.164Z,15.54
2019-04-21T07:58:47.705Z,15.68
2019-04-21T07:59:52.411Z,15.70
2019-04-21T08:00:51.429Z,15.61
2019-04-21T08:01:48.422Z,15.67
2019-04-21T08:02:40.411Z,15.64
2019-04-21T08:03:38.833Z,15.65
2019-04-21T08:04:54.177Z,15.73
2019-04-21T08:05:58.422Z,15.68
2019-04-21T08:06:40.595Z,15.68
2019-04-21T08:07:52.166Z,15.75
2019-04-21T08:08:42.284Z,15.76
2019-04-21T08:09:42.663Z,15.80
2019-04-21T08:10:39.187Z,15.79
2019-04-21T08:11:36.670Z,15.82
2019-04-21T08:12:36.294Z,15.90
2019-04-21T08:14:57.535Z,15.84
2019-04-21T08:15:39.947Z,15.86
2019-04-21T08:16:39.660Z,15.86
2019-04-21T08:17:42.610Z,15.94
2019-04-21T08:18:39.876Z,15.88
2019-04-21T08:19:35.892Z,15.91
2019-04-21T08:20:38.271Z,15.88
2019-04-21T08:21:46.234Z,15.97
2019-04-21T08:22:41.242Z,15.84
2019-04-21T08:23:38.448Z,16.00
2019-04-21T08:24:47.015Z,15.92
2019-04-21T08:25:45.858Z,16.00
2019-04-21T08:26:45.032Z,15.94
2019-04-21T08:27:42.459Z,16.04
2019-04-21T08:28:43.752Z,16.09
2019-04-21T08:29:40.850Z,15.98
2019-04-21T08:30:36.590Z,16.10
2019-04-21T08:31:49.931Z,16.08
2019-04-21T08:32:57.249Z,16.17
2019-04-21T08:34:43.254Z,16.20
2019-04-21T08:36:33.917Z,16.17
2019-04-21T08:37:39.920Z,16.21
2019-04-21T08:38:41.285Z,16.29
2019-04-21T08:39:49.409Z,16.29
2019-04-21T08:41:39.564Z,16.28
2019-04-21T08:42:43.252Z,16.26
2019-04-21T08:43:43.098Z,16.33
2019-04-21T08:44:45.193Z,16.47
2019-04-21T08:46:44.659Z,16.38
2019-04-21T08:48:39.308Z,16.39
2019-04-21T08:49:38.720Z,16.39
2019-04-21T08:50:41.574Z,16.47
2019-04-21T08:51:41.292Z,16.39
2019-04-21T08:53:44.185Z,16.50
2019-04-21T08:54:36.788Z,16.61
2019-04-21T08:55:40.021Z,16.54
2019-04-21T08:56:33.905Z,16.64
2019-04-21T08:57:41.441Z,16.60
2019-04-21T08:58:41.505Z,16.72
2019-04-21T08:59:36.340Z,16.75
2019-04-21T09:00:38.488Z,16.72
2019-04-21T09:01:38.337Z,16.72
2019-04-21T09:02:43.236Z,16.74
2019-04-21T09:03:37.145Z,16.74
2019-04-21T09:04:33.434Z,16.71
2019-04-21T09:05:35.600Z,16.87
2019-04-21T09:06:58.878Z,16.84
2019-04-21T09:07:41.407Z,16.79
2019-04-21T09:08:33.125Z,16.83
2019-04-21T09:09:34.986Z,16.81
2019-04-21T09:10:35.657Z,16.91
2019-04-21T09:11:37.569Z,16.91
2019-04-21T09:13:35.596Z,16.94
2019-04-21T09:14:39.568Z,16.99
2019-04-21T09:15:30.919Z,17.01
2019-04-21T09:16:31.229Z,16.99
2019-04-21T09:17:28.610Z,17.08
2019-04-21T09:18:29.863Z,17.04
2019-04-21T09:19:45.642Z,17.14
2019-04-21T09:20:38.801Z,17.06
2019-04-21T09:21:31.772Z,17.08
2019-04-21T09:22:30.465Z,17.06
2019-04-21T09:23:36.525Z,17.06
2019-04-21T09:24:39.054Z,17.14
2019-04-21T09:25:40.804Z,17.20
2019-04-21T09:26:29.417Z,17.23
2019-04-21T09:27:35.628Z,17.31
2019-04-21T09:28:25.638Z,17.24
2019-04-21T09:29:25.316Z,17.29
2019-04-21T09:30:15.172Z,17.45
2019-04-21T09:31:19.184Z,17.42
2019-04-21T09:32:21.321Z,17.56
2019-04-21T09:33:14.117Z,17.63
2019-04-21T09:34:21.069Z,17.64
2019-04-21T09:35:15.465Z,17.63
2019-04-21T09:36:18.058Z,17.64
2019-04-21T09:37:26.845Z,17.72
2019-04-21T09:38:22.672Z,17.74
2019-04-21T09:39:18.276Z,17.76
2019-04-21T09:40:14.969Z,17.82
2019-04-21T09:41:17.491Z,17.79
2019-04-21T09:42:13.626Z,17.83
2019-04-21T09:43:18.696Z,17.80
2019-04-21T09:44:17.162Z,17.98
2019-04-21T09:45:14.346Z,18.04
2019-04-21T09:46:13.917Z,18.01
2019-04-21T09:47:14.281Z,18.10
2019-04-21T09:48:17.571Z,18.18
2019-04-21T09:49:15.733Z,18.31
2019-04-21T09:50:13.477Z,18.28
2019-04-21T09:51:13.076Z,18.38
2019-04-21T09:52:18.815Z,18.33
2019-04-21T09:53:22.200Z,18.38
2019-04-21T09:54:17.451Z,18.31
2019-04-21T09:55:17.327Z,18.35
2019-04-21T09:56:16.639Z,18.40
2019-04-21T09:57:24.299Z,18.50
2019-04-21T09:58:21.821Z,18.52
2019-04-21T09:59:18.040Z,18.65
2019-04-21T10:00:15.231Z,18.73
2019-04-21T10:01:20.434Z,18.89
2019-04-21T10:02:19.319Z,18.81
2019-04-21T10:03:14.017Z,18.81
2019-04-21T10:04:11.996Z,18.86
2019-04-21T10:05:12.305Z,18.80
2019-04-21T10:06:11.578Z,18.83
2019-04-21T10:07:23.708Z,18.90
2019-04-21T10:08:12.417Z,18.89
2019-04-21T10:09:14.405Z,18.98
2019-04-21T10:10:10.785Z,19.00
2019-04-21T10:11:11.851Z,18.90
2019-04-21T10:12:11.828Z,19.07
2019-04-21T10:13:10.686Z,19.09
2019-04-21T10:14:11.623Z,19.14
2019-04-21T10:15:10.717Z,19.18
2019-04-21T10:16:10.869Z,19.14
2019-04-21T10:17:10.879Z,19.16
2019-04-21T10:18:10.805Z,19.16
2019-04-21T10:19:11.201Z,19.18
2019-04-21T10:20:11.612Z,19.19
2019-04-21T10:21:17.439Z,19.16
2019-04-21T10:23:13.787Z,19.12
2019-04-21T10:24:13.692Z,19.22
2019-04-21T10:26:18.685Z,19.24
2019-04-21T10:27:17.444Z,19.30
2019-04-21T10:29:25.520Z,19.34
2019-04-21T10:30:22.405Z,19.39
2019-04-21T10:32:15.332Z,19.47
2019-04-21T10:33:14.428Z,19.52
2019-04-21T10:35:20.425Z,19.48
2019-04-21T10:36:17.670Z,19.55
2019-04-21T10:38:30.212Z,19.45
2019-04-21T10:39:21.771Z,19.41
2019-04-21T10:40:21.370Z,19.55
2019-04-21T10:41:21.552Z,19.49
2019-04-21T10:42:21.479Z,19.66
2019-04-21T10:43:23.677Z,19.85
2019-04-21T10:44:21.129Z,19.84
2019-04-21T10:45:21.213Z,19.94
2019-04-21T10:46:20.915Z,19.99
2019-04-21T10:47:20.834Z,19.95
2019-04-21T10:48:20.983Z,20.06
2019-04-21T10:49:20.685Z,20.07
2019-04-21T10:50:20.610Z,20.11
2019-04-21T10:51:21.222Z,19.92
2019-04-21T10:52:20.464Z,19.88
2019-04-21T10:53:20.860Z,19.86
2019-04-21T10:54:20.315Z,19.79
2019-04-21T10:55:38.984Z,19.81
2019-04-21T10:56:29.138Z,19.70
2019-04-21T10:57:20.153Z,19.70
2019-04-21T10:58:20.323Z,19.77
2019-04-21T10:59:20.445Z,19.69
2019-04-21T11:00:19.870Z,19.94
2019-04-21T11:01:21.053Z,20.00
2019-04-21T11:02:21.013Z,20.16
2019-04-21T11:03:19.647Z,20.11
2019-04-21T11:04:21.874Z,20.09
2019-04-21T11:05:20.743Z,20.19
2019-04-21T11:06:20.858Z,20.09
2019-04-21T11:07:21.570Z,20.03
2019-04-21T11:08:27.951Z,20.03
2019-04-21T11:09:20.080Z,20.07
2019-04-21T11:10:20.358Z,20.18
2019-04-21T11:11:19.620Z,20.21
2019-04-21T11:12:19.815Z,20.26
2019-04-21T11:13:18.912Z,20.19
2019-04-21T11:14:18.833Z,20.34
2019-04-21T11:15:19.027Z,20.34
2019-04-21T11:16:19.200Z,20.50
2019-04-21T11:17:19.550Z,20.50
2019-04-21T11:18:19.784Z,20.43
2019-04-21T11:19:18.466Z,20.41
2019-04-21T11:20:19.207Z,20.59
2019-04-21T11:21:18.759Z,20.51
2019-04-21T11:22:18.907Z,20.55
2019-04-21T11:23:21.189Z,20.52
2019-04-21T11:24:18.267Z,20.51
2019-04-21T11:25:18.034Z,20.59
2019-04-21T11:26:18.110Z,20.65
2019-04-21T11:27:19.122Z,20.77
2019-04-21T11:28:18.646Z,20.88
2019-04-21T11:29:19.060Z,20.85
2019-04-21T11:30:17.814Z,20.93
2019-04-21T11:31:18.816Z,21.02
2019-04-21T11:32:17.527Z,21.07
2019-04-21T11:33:17.463Z,21.12
2019-04-21T11:34:17.385Z,21.25
2019-04-21T11:35:17.313Z,21.21
2019-04-21T11:36:17.448Z,21.35
2019-04-21T11:37:17.166Z,21.50
2019-04-21T11:38:21.824Z,21.54
2019-04-21T11:39:27.287Z,21.61
2019-04-21T11:40:19.728Z,21.79
2019-04-21T11:41:19.127Z,21.99
2019-04-21T11:42:17.613Z,22.20
2019-04-21T11:43:17.792Z,22.45
2019-04-21T11:44:16.712Z,22.57
2019-04-21T11:45:16.649Z,22.70
2019-04-21T11:46:16.586Z,22.94
2019-04-21T11:47:16.521Z,23.09
2019-04-21T11:48:16.669Z,23.39
2019-04-21T11:49:16.400Z,23.43
2019-04-21T11:50:17.070Z,23.63
2019-04-21T11:51:17.168Z,23.65
2019-04-21T11:52:16.584Z,23.68
2019-04-21T11:53:16.846Z,23.83
2019-04-21T11:54:17.066Z,23.95
2019-04-21T11:55:16.584Z,24.05
2019-04-21T11:56:16.824Z,24.35
2019-04-21T11:57:22.734Z,24.55
2019-04-21T11:58:16.061Z,24.74
2019-04-21T11:59:15.809Z,25.08
2019-04-21T12:00:15.837Z,25.32
2019-04-21T12:01:15.909Z,25.50
2019-04-21T12:02:15.639Z,25.73
2019-04-21T12:03:17.055Z,26.05
2019-04-21T12:04:16.158Z,26.07
2019-04-21T12:05:15.467Z,26.28
2019-04-21T12:06:15.554Z,26.47
2019-04-21T12:07:15.533Z,26.68
2019-04-21T12:08:22.974Z,26.88
2019-04-21T12:09:15.246Z,26.97
2019-04-21T12:10:15.500Z,27.22
2019-04-21T12:11:15.855Z,27.48
2019-04-21T12:12:15.156Z,27.63
2019-04-21T12:13:16.163Z,27.74
2019-04-21T12:14:16.180Z,27.95
2019-04-21T12:15:14.920Z,28.07
2019-04-21T12:16:15.028Z,28.25
2019-04-21T12:17:16.058Z,28.35
2019-04-21T12:18:15.539Z,28.45
2019-04-21T12:19:14.692Z,28.32
2019-04-21T12:20:14.830Z,28.51
2019-04-21T12:21:15.701Z,28.45
2019-04-21T12:22:21.620Z,28.48
2019-04-21T12:23:14.504Z,28.38
2019-04-21T12:24:15.228Z,28.47
2019-04-21T12:25:15.494Z,28.63
2019-04-21T12:26:14.318Z,28.74
2019-04-21T12:27:14.269Z,28.91
2019-04-21T12:28:14.331Z,29.14
2019-04-21T12:29:14.581Z,29.31
2019-04-21T12:30:14.115Z,29.36
2019-04-21T12:31:14.058Z,29.51
2019-04-21T12:32:14.006Z,29.57
2019-04-21T12:33:14.103Z,29.56
2019-04-21T12:34:14.172Z,29.59
2019-04-21T12:35:13.847Z,29.79
2019-04-21T12:36:13.910Z,29.82
2019-04-21T12:37:15.080Z,29.93
2019-04-21T12:38:13.690Z,30.08
2019-04-21T12:39:14.913Z,29.95
2019-04-21T12:40:14.709Z,29.88
2019-04-21T12:41:14.803Z,30.03
2019-04-21T12:42:14.407Z,30.13
2019-04-21T12:43:14.637Z,30.27
2019-04-21T12:44:13.378Z,30.48
2019-04-21T12:45:13.325Z,30.19
2019-04-21T12:46:13.901Z,30.15
2019-04-21T12:47:14.156Z,30.24
2019-04-21T12:48:13.797Z,30.13
2019-04-21T12:49:13.797Z,30.12
2019-04-21T12:50:13.080Z,30.21
2019-04-21T12:51:13.017Z,30.31
2019-04-21T12:52:13.542Z,30.43
2019-04-21T12:53:15.550Z,30.44
2019-04-21T12:54:12.865Z,30.54
2019-04-21T12:55:13.520Z,30.53
2019-04-21T12:56:13.705Z,30.83
2019-04-21T12:57:13.785Z,31.00
2019-04-21T12:58:13.151Z,31.02
2019-04-21T12:59:12.608Z,31.28
2019-04-21T13:00:13.138Z,31.43
2019-04-21T13:01:12.620Z,31.56
2019-04-21T13:02:13.634Z,31.65
2019-04-21T13:03:12.395Z,31.74
2019-04-21T13:04:13.409Z,31.76
2019-04-21T13:05:13.342Z,31.94
2019-04-21T13:06:12.245Z,32.15
2019-04-21T13:07:13.300Z,32.29
2019-04-21T13:08:13.383Z,32.27
2019-04-21T13:09:14.979Z,32.30
2019-04-21T13:10:12.708Z,32.26
2019-04-21T13:11:13.181Z,32.16
2019-04-21T13:12:13.026Z,32.21
2019-04-21T13:13:12.183Z,32.12
2019-04-21T13:14:11.834Z,32.18
2019-04-21T13:15:11.781Z,32.29
2019-04-21T13:16:11.769Z,32.34
2019-04-21T13:17:13.029Z,32.46
2019-04-21T13:18:12.408Z,32.56
2019-04-21T13:19:11.627Z,32.70
2019-04-21T13:20:11.734Z,32.67
2019-04-21T13:21:12.054Z,32.65
2019-04-21T13:22:12.194Z,32.70
2019-04-21T13:23:12.229Z,32.65
2019-04-21T13:24:11.628Z,32.85
2019-04-21T13:25:11.902Z,32.80
2019-04-21T13:26:11.447Z,32.95
2019-04-21T13:27:12.707Z,32.97
2019-04-21T13:28:12.415Z,33.00
2019-04-21T13:29:12.259Z,33.11
2019-04-21T13:30:11.043Z,33.23
2019-04-21T13:31:11.998Z,33.39
2019-04-21T13:32:12.444Z,33.55
2019-04-21T13:33:11.274Z,33.43
2019-04-21T13:34:10.813Z,33.58
2019-04-21T13:35:10.866Z,33.64
2019-04-21T13:36:11.747Z,33.69
2019-04-21T13:37:11.937Z,33.69
2019-04-21T13:38:20.027Z,33.80
2019-04-21T13:39:38.215Z,34.01
2019-04-21T13:40:29.256Z,34.25
2019-04-21T13:41:28.612Z,34.40
2019-04-21T13:42:17.402Z,34.55
2019-04-21T13:43:12.278Z,34.50
2019-04-21T13:44:10.981Z,34.52
2019-04-21T13:45:10.296Z,34.60
2019-04-21T13:46:10.267Z,34.71
2019-04-21T13:47:10.460Z,34.70
2019-04-21T13:48:10.598Z,34.85
2019-04-21T13:49:11.494Z,34.81
2019-04-21T13:50:11.205Z,34.92
2019-04-21T13:51:11.204Z,35.02
2019-04-21T13:52:11.034Z,34.90
2019-04-21T13:53:09.856Z,34.95
2019-04-21T13:54:09.807Z,35.00
2019-04-21T13:55:09.768Z,35.02
2019-04-21T13:56:10.782Z,35.18
2019-04-21T13:57:10.489Z,35.23
2019-04-21T13:58:10.429Z,35.36
2019-04-21T13:59:10.581Z,35.44
2019-04-21T14:00:10.915Z,35.48
2019-04-21T14:01:09.706Z,35.48